Time;durP1;ratioP1;P1;durP2;ratioP2;P2;SDS_P1;SDS_P2;PMS_P1;PMS_P2;Temp;Humidity;BMP_temperature;BMP_pressure;BME280_temperature;BME280_humidity;BME280_pressure;Samples;Min_cycle;Max_cycle;Signal;HPM_P1;HPM_P2
2023/06/18 00:01:45;;;;;;;25.42;21.52;;;;;;;;;;4953661;28;22089;-64
2023/06/18 00:04:11;;;;;;;24.83;20.70;;;;;;;;;;4955902;28;21274;-64
2023/06/18 00:06:37;;;;;;;24.95;20.80;;;;;;;;;;4951072;28;20621;-64
2023/06/18 00:09:03;;;;;;;25.95;22.05;;;;;;;;;;4955624;28;20100;-64
2023/06/18 00:11:29;;;;;;;21.85;18.45;;;;;;;;;;4954896;28;20794;-64
2023/06/18 00:13:55;;;;;;;23.35;19.52;;;;;;;;;;4927302;28;20046;-65
2023/06/18 00:16:21;;;;;;;21.58;18.20;;;;;;;;;;4953837;28;20034;-64
2023/06/18 00:18:47;;;;;;;20.80;17.45;;;;;;;;;;4954544;28;20041;-64
2023/06/18 00:21:13;;;;;;;18.77;16.02;;;;;;;;;;4954255;28;20045;-64
2023/06/18 00:23:39;;;;;;;21.75;11.40;;;;;;;;;;4954348;28;21285;-65
2023/06/18 00:26:05;;;;;;;11.93;10.40;;;;;;;;;;4954212;28;20043;-64
2023/06/18 00:28:32;;;;;;;12.30;10.80;;;;;;;;;;4953248;28;20089;-65
2023/06/18 00:30:58;;;;;;;13.10;10.13;;;;;;;;;;4953887;28;20031;-64
2023/06/18 00:33:24;;;;;;;15.30;11.30;;;;;;;;;;4953124;28;20030;-64
2023/06/18 00:35:57;;;;;;;19.25;14.57;;;;;;;;;;4953411;28;21855;-64
2023/06/18 00:38:29;;;;;;;20.20;15.85;;;;;;;;;;4953414;28;20030;-64
2023/06/18 00:40:55;;;;;;;21.35;18.30;;;;;;;;;;4953319;28;20896;-64
2023/06/18 00:43:21;;;;;;;23.65;19.70;;;;;;;;;;4953787;28;20045;-64
2023/06/18 00:45:48;;;;;;;22.65;19.05;;;;;;;;;;4951385;28;20113;-65
2023/06/18 00:48:14;;;;;;;21.70;19.33;;;;;;;;;;4953528;28;20046;-65
2023/06/18 00:50:41;;;;;;;23.80;18.83;;;;;;;;;;4953835;28;20065;-64
2023/06/18 00:53:07;;;;;;;25.92;21.95;;;;;;;;;;4953841;28;20026;-64
2023/06/18 00:55:37;;;;;;;22.27;19.85;;;;;;;;;;4954397;28;20929;-64
2023/06/18 00:58:05;;;;;;;26.25;20.83;;;;;;;;;;4954198;28;20055;-64
2023/06/18 01:00:34;;;;;;;24.42;20.75;;;;;;;;;;4954053;28;20035;-64
2023/06/18 01:03:06;;;;;;;24.95;20.40;;;;;;;;;;4953258;28;20035;-64
2023/06/18 01:05:33;;;;;;;23.25;20.75;;;;;;;;;;4955048;28;20074;-64
2023/06/18 01:07:59;;;;;;;24.48;20.80;;;;;;;;;;4953898;28;20054;-64
2023/06/18 01:10:29;;;;;;;23.80;20.15;;;;;;;;;;4954718;28;20129;-65
2023/06/18 01:12:56;;;;;;;23.83;18.55;;;;;;;;;;4954448;28;20662;-64
2023/06/18 01:15:23;;;;;;;23.15;19.20;;;;;;;;;;4954014;28;20035;-64
2023/06/18 01:17:49;;;;;;;22.08;18.02;;;;;;;;;;4954127;28;21314;-65
2023/06/18 01:20:17;;;;;;;23.40;18.52;;;;;;;;;;4948115;28;20030;-64
2023/06/18 01:22:59;;;;;;;24.48;18.48;;;;;;;;;;4954236;28;20125;-64
2023/06/18 01:25:29;;;;;;;23.85;18.85;;;;;;;;;;4954088;28;20097;-65
2023/06/18 01:27:56;;;;;;;21.95;18.40;;;;;;;;;;4954808;28;20170;-65
2023/06/18 01:30:22;;;;;;;21.42;18.30;;;;;;;;;;4952583;28;20071;-64
2023/06/18 01:32:48;;;;;;;23.23;18.20;;;;;;;;;;4954419;28;20039;-64
2023/06/18 01:35:17;;;;;;;23.40;18.75;;;;;;;;;;4953710;28;20387;-64
2023/06/18 01:37:48;;;;;;;22.98;18.63;;;;;;;;;;4953038;28;20080;-65
2023/06/18 01:40:22;;;;;;;23.58;19.58;;;;;;;;;;4954264;28;20101;-64
2023/06/18 01:42:56;;;;;;;25.00;18.33;;;;;;;;;;4951933;28;20039;-65
2023/06/18 01:45:27;;;;;;;24.35;18.83;;;;;;;;;;4952362;28;20042;-65
2023/06/18 01:47:56;;;;;;;22.73;18.00;;;;;;;;;;4952434;28;20090;-65
2023/06/18 01:50:22;;;;;;;19.42;15.77;;;;;;;;;;4950614;28;20085;-64
2023/06/18 01:52:50;;;;;;;22.33;17.52;;;;;;;;;;4952665;28;20132;-65
2023/06/18 01:55:17;;;;;;;19.70;15.63;;;;;;;;;;4953967;28;20043;-65
2023/06/18 01:57:43;;;;;;;22.67;17.90;;;;;;;;;;4926960;28;20047;-64
2023/06/18 02:00:09;;;;;;;25.70;18.42;;;;;;;;;;4953407;28;20023;-65
2023/06/18 02:02:36;;;;;;;23.08;18.75;;;;;;;;;;4952797;28;20051;-65
2023/06/18 02:05:02;;;;;;;24.92;20.02;;;;;;;;;;4925880;28;20043;-65
2023/06/18 02:07:28;;;;;;;23.67;19.52;;;;;;;;;;4952872;28;20516;-65
2023/06/18 02:09:54;;;;;;;22.77;19.13;;;;;;;;;;4953259;28;20898;-65
2023/06/18 02:12:20;;;;;;;20.40;16.23;;;;;;;;;;4953743;28;20026;-65
2023/06/18 02:14:46;;;;;;;20.33;15.15;;;;;;;;;;4952730;28;20035;-65
2023/06/18 02:17:12;;;;;;;17.13;12.73;;;;;;;;;;4953490;28;20747;-65
2023/06/18 02:19:38;;;;;;;13.88;11.73;;;;;;;;;;4953070;28;20233;-64
2023/06/18 02:22:04;;;;;;;15.15;11.25;;;;;;;;;;4953419;28;20532;-64
2023/06/18 02:24:32;;;;;;;12.65;10.77;;;;;;;;;;4953617;28;20157;-65
2023/06/18 02:26:58;;;;;;;13.65;11.88;;;;;;;;;;4956653;28;20085;-65
2023/06/18 02:29:25;;;;;;;13.43;11.25;;;;;;;;;;4955677;28;20129;-64
2023/06/18 02:31:51;;;;;;;17.20;12.07;;;;;;;;;;4955353;28;20045;-64
2023/06/18 02:34:18;;;;;;;13.35;11.57;;;;;;;;;;4956420;28;20082;-64
2023/06/18 02:36:44;;;;;;;14.48;12.00;;;;;;;;;;4955064;28;20038;-65
2023/06/18 02:39:11;;;;;;;13.68;11.45;;;;;;;;;;4938835;28;20034;-64
2023/06/18 02:41:37;;;;;;;14.10;11.63;;;;;;;;;;4955176;28;20034;-64
2023/06/18 02:44:04;;;;;;;12.05;10.52;;;;;;;;;;4955267;28;20093;-65
2023/06/18 02:46:30;;;;;;;12.27;10.60;;;;;;;;;;4955591;28;20042;-64
2023/06/18 02:48:56;;;;;;;12.20;10.32;;;;;;;;;;4956036;28;20066;-64
2023/06/18 02:51:22;;;;;;;12.48;10.82;;;;;;;;;;4953321;28;20192;-64
2023/06/18 02:53:48;;;;;;;12.40;9.85;;;;;;;;;;4955373;28;20153;-65
2023/06/18 02:56:14;;;;;;;8.45;7.55;;;;;;;;;;4955777;28;20031;-65
2023/06/18 02:58:40;;;;;;;9.77;8.20;;;;;;;;;;4954629;28;20053;-64
2023/06/18 03:01:06;;;;;;;8.40;6.70;;;;;;;;;;4955589;28;20507;-64
2023/06/18 03:03:33;;;;;;;8.55;7.32;;;;;;;;;;4954780;28;20581;-64
2023/06/18 03:05:59;;;;;;;8.40;7.05;;;;;;;;;;4954839;28;20038;-64
2023/06/18 03:08:25;;;;;;;7.68;6.78;;;;;;;;;;4955209;28;20046;-64
2023/06/18 03:10:51;;;;;;;8.27;7.10;;;;;;;;;;4954879;28;20038;-64
2023/06/18 03:13:17;;;;;;;7.95;6.90;;;;;;;;;;4954931;28;20034;-64
2023/06/18 03:15:43;;;;;;;8.73;7.82;;;;;;;;;;4954739;28;20041;-65
2023/06/18 03:18:10;;;;;;;8.35;7.13;;;;;;;;;;4927843;28;20035;-65
2023/06/18 03:20:36;;;;;;;8.35;7.43;;;;;;;;;;4955315;28;20037;-65
2023/06/18 03:23:02;;;;;;;7.55;6.75;;;;;;;;;;4954542;28;20038;-65
2023/06/18 03:25:28;;;;;;;10.73;7.72;;;;;;;;;;4954485;28;20502;-65
2023/06/18 03:27:54;;;;;;;9.10;8.18;;;;;;;;;;4954765;28;21922;-65
2023/06/18 03:30:21;;;;;;;10.85;9.15;;;;;;;;;;4955659;28;20034;-65
2023/06/18 03:32:47;;;;;;;11.23;10.05;;;;;;;;;;4954546;28;20691;-65
2023/06/18 03:35:13;;;;;;;15.85;11.25;;;;;;;;;;4954435;28;20046;-65
2023/06/18 03:37:40;;;;;;;12.80;11.45;;;;;;;;;;4953902;28;20038;-65
2023/06/18 03:40:07;;;;;;;16.60;12.35;;;;;;;;;;4953546;28;20096;-64
2023/06/18 03:42:33;;;;;;;16.27;12.93;;;;;;;;;;4954912;28;20170;-64
2023/06/18 03:44:59;;;;;;;14.80;13.20;;;;;;;;;;4953474;28;20035;-65
2023/06/18 03:47:25;;;;;;;18.40;15.07;;;;;;;;;;4954035;28;20036;-64
2023/06/18 03:49:51;;;;;;;18.38;15.77;;;;;;;;;;4954444;28;20035;-65
2023/06/18 03:52:17;;;;;;;22.55;17.77;;;;;;;;;;4954892;28;20121;-64
2023/06/18 03:54:43;;;;;;;22.90;18.67;;;;;;;;;;4954501;28;20125;-64
2023/06/18 03:57:09;;;;;;;24.38;19.08;;;;;;;;;;4952918;28;20034;-65
2023/06/18 03:59:35;;;;;;;24.02;19.20;;;;;;;;;;4953724;28;20089;-64
2023/06/18 04:02:01;;;;;;;25.40;19.77;;;;;;;;;;4954571;28;20027;-64
2023/06/18 04:04:27;;;;;;;25.48;19.63;;;;;;;;;;4953659;28;20157;-64
2023/06/18 04:06:53;;;;;;;24.45;18.50;;;;;;;;;;4954111;28;20934;-65
2023/06/18 04:09:19;;;;;;;25.88;19.95;;;;;;;;;;4952770;28;20406;-64
2023/06/18 04:11:46;;;;;;;24.45;18.80;;;;;;;;;;4953700;28;20031;-64
2023/06/18 04:14:12;;;;;;;22.42;17.80;;;;;;;;;;4953669;28;20500;-64
2023/06/18 04:16:38;;;;;;;23.98;19.05;;;;;;;;;;4953866;28;20172;-64
2023/06/18 04:19:04;;;;;;;23.48;19.55;;;;;;;;;;4953991;28;20034;-65
2023/06/18 04:21:30;;;;;;;23.52;18.98;;;;;;;;;;4953294;28;20113;-65
2023/06/18 04:23:57;;;;;;;25.48;19.30;;;;;;;;;;4953339;28;20034;-64
2023/06/18 04:26:23;;;;;;;23.67;18.40;;;;;;;;;;4952807;28;21711;-63
2023/06/18 04:28:50;;;;;;;23.67;18.88;;;;;;;;;;4953719;28;20046;-65
2023/06/18 04:31:16;;;;;;;25.30;20.35;;;;;;;;;;4953479;28;20040;-64
2023/06/18 04:33:42;;;;;;;26.52;19.40;;;;;;;;;;4953602;28;20058;-64
2023/06/18 04:36:09;;;;;;;25.23;19.95;;;;;;;;;;4952805;28;20027;-64
2023/06/18 04:38:37;;;;;;;22.70;18.52;;;;;;;;;;4953599;28;20113;-64
2023/06/18 04:41:03;;;;;;;26.58;18.92;;;;;;;;;;4954359;28;20049;-64
2023/06/18 04:43:29;;;;;;;22.35;17.63;;;;;;;;;;4953402;28;20122;-64
2023/06/18 04:45:55;;;;;;;23.38;19.17;;;;;;;;;;4953404;28;20237;-64
2023/06/18 04:48:22;;;;;;;27.25;18.60;;;;;;;;;;4952567;28;20034;-64
2023/06/18 04:50:48;;;;;;;24.45;20.42;;;;;;;;;;4953519;28;20939;-64
2023/06/18 04:53:14;;;;;;;22.60;18.75;;;;;;;;;;4953944;28;20140;-64
2023/06/18 04:55:41;;;;;;;23.10;18.73;;;;;;;;;;4953525;28;20152;-64
2023/06/18 04:58:07;;;;;;;22.80;18.05;;;;;;;;;;4951872;28;20030;-64
2023/06/18 05:00:33;;;;;;;23.77;19.10;;;;;;;;;;4952649;28;20126;-65
2023/06/18 05:03:03;;;;;;;23.00;18.60;;;;;;;;;;4953380;28;21762;-65
2023/06/18 05:05:29;;;;;;;22.85;19.15;;;;;;;;;;4953176;28;20043;-65
2023/06/18 05:07:55;;;;;;;21.75;17.60;;;;;;;;;;4953229;28;20705;-65
2023/06/18 05:10:22;;;;;;;27.73;19.40;;;;;;;;;;4953299;28;20054;-64
2023/06/18 05:12:48;;;;;;;22.63;18.33;;;;;;;;;;4953068;28;20117;-64
2023/06/18 05:15:14;;;;;;;22.73;18.10;;;;;;;;;;4953915;28;20037;-65
2023/06/18 05:17:40;;;;;;;22.35;17.77;;;;;;;;;;4953977;28;20037;-64
2023/06/18 05:20:08;;;;;;;22.33;17.85;;;;;;;;;;4954153;28;20073;-65
2023/06/18 05:22:34;;;;;;;26.77;19.40;;;;;;;;;;4953946;28;20068;-65
2023/06/18 05:25:01;;;;;;;20.10;17.83;;;;;;;;;;4953890;28;20041;-64
2023/06/18 05:27:28;;;;;;;22.92;17.83;;;;;;;;;;4952777;28;20047;-64
2023/06/18 05:29:54;;;;;;;20.45;16.83;;;;;;;;;;4953353;28;20035;-64
2023/06/18 05:32:20;;;;;;;22.80;17.23;;;;;;;;;;4953866;28;20039;-65
2023/06/18 05:34:46;;;;;;;21.05;16.73;;;;;;;;;;4953664;28;20064;-64
2023/06/18 05:37:12;;;;;;;19.63;17.50;;;;;;;;;;4953356;28;20038;-65
2023/06/18 05:39:39;;;;;;;21.30;17.02;;;;;;;;;;4952878;28;20035;-65
2023/06/18 05:42:06;;;;;;;19.08;15.35;;;;;;;;;;4954139;28;20045;-65
2023/06/18 05:44:32;;;;;;;17.98;14.73;;;;;;;;;;4953752;28;20054;-64
2023/06/18 05:46:58;;;;;;;19.20;15.90;;;;;;;;;;4953141;28;20035;-65
2023/06/18 05:49:24;;;;;;;20.05;16.67;;;;;;;;;;4952366;28;20039;-64
2023/06/18 05:51:50;;;;;;;18.30;15.73;;;;;;;;;;4953172;28;20651;-65
2023/06/18 05:54:16;;;;;;;19.90;15.52;;;;;;;;;;4953491;28;20035;-64
2023/06/18 05:56:43;;;;;;;17.58;14.25;;;;;;;;;;4952163;28;20034;-64
2023/06/18 05:59:09;;;;;;;16.63;13.50;;;;;;;;;;4953037;28;20035;-65
2023/06/18 06:01:36;;;;;;;17.45;14.20;;;;;;;;;;4956327;28;20121;-64
2023/06/18 06:04:03;;;;;;;19.77;14.80;;;;;;;;;;4954518;28;20038;-65
2023/06/18 06:06:29;;;;;;;16.77;12.93;;;;;;;;;;4956962;28;20050;-64
2023/06/18 06:08:55;;;;;;;17.00;14.18;;;;;;;;;;4955758;28;20050;-65
2023/06/18 06:11:22;;;;;;;16.48;13.50;;;;;;;;;;4956720;28;20166;-64
2023/06/18 06:13:48;;;;;;;16.58;13.80;;;;;;;;;;4956432;28;21848;-65
2023/06/18 06:16:14;;;;;;;16.23;13.85;;;;;;;;;;4956411;28;20034;-65
2023/06/18 06:18:40;;;;;;;17.20;14.27;;;;;;;;;;4955213;28;20034;-65
2023/06/18 06:21:07;;;;;;;15.68;12.80;;;;;;;;;;4956813;28;20066;-64
2023/06/18 06:23:33;;;;;;;17.20;14.85;;;;;;;;;;4938773;28;21851;-65
2023/06/18 06:25:59;;;;;;;16.55;13.70;;;;;;;;;;4956782;28;20765;-65
2023/06/18 06:28:26;;;;;;;17.48;14.27;;;;;;;;;;4955693;28;20580;-65
2023/06/18 06:30:52;;;;;;;20.23;14.25;;;;;;;;;;4955363;28;20046;-64
2023/06/18 06:33:18;;;;;;;15.73;13.63;;;;;;;;;;4955508;28;20042;-65
2023/06/18 06:35:44;;;;;;;17.23;13.63;;;;;;;;;;4956100;28;20034;-64
2023/06/18 06:38:10;;;;;;;15.20;13.10;;;;;;;;;;4955958;28;20026;-64
2023/06/18 06:40:36;;;;;;;16.55;14.50;;;;;;;;;;4955760;28;20037;-64
2023/06/18 06:43:03;;;;;;;18.75;13.80;;;;;;;;;;4937803;28;20027;-65
2023/06/18 06:45:29;;;;;;;16.23;13.40;;;;;;;;;;4955641;28;20556;-64
2023/06/18 06:47:55;;;;;;;19.33;15.02;;;;;;;;;;4954326;28;20105;-64
2023/06/18 06:50:22;;;;;;;19.40;14.73;;;;;;;;;;4955470;28;20088;-65
2023/06/18 06:52:48;;;;;;;18.15;13.73;;;;;;;;;;4955724;28;20133;-64
2023/06/18 06:55:14;;;;;;;17.88;14.98;;;;;;;;;;4955189;28;20093;-64
2023/06/18 06:57:40;;;;;;;17.33;14.73;;;;;;;;;;4955288;28;20588;-65
2023/06/18 07:00:06;;;;;;;20.05;13.45;;;;;;;;;;4956295;28;20516;-65
2023/06/18 07:02:33;;;;;;;18.30;13.88;;;;;;;;;;4954854;28;20067;-65
2023/06/18 07:04:59;;;;;;;17.67;14.73;;;;;;;;;;4956007;28;20100;-64
2023/06/18 07:07:26;;;;;;;16.58;13.70;;;;;;;;;;4955194;28;20041;-64
2023/06/18 07:09:52;;;;;;;20.92;14.90;;;;;;;;;;4955453;28;20050;-65
2023/06/18 07:12:18;;;;;;;17.95;14.30;;;;;;;;;;4955406;28;20413;-64
2023/06/18 07:14:44;;;;;;;17.35;14.27;;;;;;;;;;4955922;28;20027;-65
2023/06/18 07:17:10;;;;;;;15.70;13.13;;;;;;;;;;4955543;28;20031;-64
2023/06/18 07:19:36;;;;;;;15.07;12.95;;;;;;;;;;4955363;28;21771;-64
2023/06/18 07:22:02;;;;;;;21.10;13.30;;;;;;;;;;4956727;28;21185;-64
2023/06/18 07:24:29;;;;;;;15.57;12.82;;;;;;;;;;4956531;28;20066;-65
2023/06/18 07:26:55;;;;;;;16.75;12.07;;;;;;;;;;4956061;28;21200;-65
2023/06/18 07:29:21;;;;;;;16.95;12.93;;;;;;;;;;4956241;28;20070;-65
2023/06/18 07:31:47;;;;;;;15.18;10.85;;;;;;;;;;4952933;28;20049;-64
2023/06/18 07:34:16;;;;;;;14.52;11.35;;;;;;;;;;4955501;28;20026;-64
2023/06/18 07:36:42;;;;;;;15.50;12.07;;;;;;;;;;4955574;28;20035;-64
2023/06/18 07:39:08;;;;;;;13.70;11.45;;;;;;;;;;4927682;28;20041;-64
2023/06/18 07:41:35;;;;;;;15.32;11.30;;;;;;;;;;4956056;28;20078;-64
2023/06/18 07:44:01;;;;;;;18.45;11.48;;;;;;;;;;4956185;28;20038;-64
2023/06/18 07:46:27;;;;;;;16.65;13.00;;;;;;;;;;4956006;28;20039;-65
2023/06/18 07:48:53;;;;;;;16.77;11.82;;;;;;;;;;4955848;28;20035;-64
2023/06/18 07:51:20;;;;;;;15.02;11.40;;;;;;;;;;4956227;28;20030;-65
2023/06/18 07:53:46;;;;;;;14.10;11.10;;;;;;;;;;4954773;28;20425;-64
2023/06/18 07:56:12;;;;;;;11.95;10.55;;;;;;;;;;4955940;28;20027;-65
2023/06/18 07:58:38;;;;;;;12.18;10.57;;;;;;;;;;4955562;28;20042;-64
2023/06/18 08:01:05;;;;;;;15.15;11.00;;;;;;;;;;4954932;28;20148;-65
2023/06/18 08:03:31;;;;;;;15.95;11.32;;;;;;;;;;4954163;28;20053;-64
2023/06/18 08:05:57;;;;;;;15.20;11.45;;;;;;;;;;4926023;28;20761;-65
2023/06/18 08:08:23;;;;;;;15.20;10.35;;;;;;;;;;4953426;28;20054;-65
2023/06/18 08:10:50;;;;;;;14.93;11.18;;;;;;;;;;4953886;28;20140;-64
2023/06/18 08:13:16;;;;;;;13.57;11.23;;;;;;;;;;4954009;28;20030;-64
2023/06/18 08:15:42;;;;;;;13.73;10.55;;;;;;;;;;4953942;28;20041;-64
2023/06/18 08:18:09;;;;;;;13.35;10.18;;;;;;;;;;4954002;28;20035;-64
2023/06/18 08:20:35;;;;;;;17.33;10.93;;;;;;;;;;4953583;28;20167;-64
2023/06/18 08:23:01;;;;;;;12.30;10.18;;;;;;;;;;4953977;28;20041;-65
2023/06/18 08:25:27;;;;;;;14.00;9.95;;;;;;;;;;4954740;28;20057;-64
2023/06/18 08:27:54;;;;;;;12.38;10.13;;;;;;;;;;4954770;28;20112;-64
2023/06/18 08:30:21;;;;;;;12.18;10.10;;;;;;;;;;4954613;28;20042;-64
2023/06/18 08:32:47;;;;;;;12.90;9.88;;;;;;;;;;4926505;28;20130;-65
2023/06/18 08:35:13;;;;;;;15.80;10.57;;;;;;;;;;4954627;28;20034;-65
2023/06/18 08:37:39;;;;;;;15.40;10.85;;;;;;;;;;4954695;28;20066;-64
2023/06/18 08:40:05;;;;;;;14.30;9.80;;;;;;;;;;4954893;28;20470;-65
2023/06/18 08:42:31;;;;;;;12.13;9.48;;;;;;;;;;4937146;28;20120;-65
2023/06/18 08:44:57;;;;;;;15.27;9.68;;;;;;;;;;4954873;28;20698;-65
2023/06/18 08:47:25;;;;;;;12.75;8.90;;;;;;;;;;4954730;28;20038;-65
2023/06/18 08:49:51;;;;;;;14.05;10.10;;;;;;;;;;4954361;28;20035;-65
2023/06/18 08:52:19;;;;;;;13.35;9.43;;;;;;;;;;4954541;28;20042;-65
2023/06/18 08:54:47;;;;;;;15.02;8.95;;;;;;;;;;4954366;28;20062;-64
2023/06/18 08:57:45;;;;;;;11.90;8.75;;;;;;;;;;4936614;28;20669;-65
2023/06/18 09:00:11;;;;;;;12.32;9.88;;;;;;;;;;4915111;28;20034;-65
2023/06/18 09:02:38;;;;;;;15.52;8.95;;;;;;;;;;4953766;28;20050;-65
2023/06/18 09:05:05;;;;;;;13.68;7.68;;;;;;;;;;4954611;28;20097;-65
2023/06/18 09:07:32;;;;;;;14.35;8.98;;;;;;;;;;4954495;28;20050;-65
2023/06/18 09:09:58;;;;;;;13.73;8.27;;;;;;;;;;4954395;28;20051;-65
2023/06/18 09:12:24;;;;;;;11.38;8.15;;;;;;;;;;4953386;28;20103;-65
2023/06/18 09:14:50;;;;;;;12.43;8.68;;;;;;;;;;4954490;28;20365;-64
2023/06/18 09:17:16;;;;;;;14.23;8.82;;;;;;;;;;4952088;28;20036;-65
2023/06/18 09:19:43;;;;;;;11.07;7.47;;;;;;;;;;4953842;28;20031;-65
2023/06/18 09:22:16;;;;;;;13.75;7.50;;;;;;;;;;4954174;28;20045;-65
2023/06/18 09:24:43;;;;;;;13.60;7.60;;;;;;;;;;4954791;28;20227;-64
2023/06/18 09:27:09;;;;;;;12.50;7.50;;;;;;;;;;4954320;28;20042;-64
2023/06/18 09:29:37;;;;;;;9.55;7.10;;;;;;;;;;4954931;28;20118;-64
2023/06/18 09:32:06;;;;;;;12.43;6.88;;;;;;;;;;4954106;28;20034;-64
2023/06/18 09:34:32;;;;;;;10.45;7.13;;;;;;;;;;4957078;28;20031;-64
2023/06/18 09:36:58;;;;;;;9.85;7.18;;;;;;;;;;4957871;28;20042;-64
2023/06/18 09:39:25;;;;;;;9.88;7.35;;;;;;;;;;4957806;28;20074;-64
2023/06/18 09:41:54;;;;;;;9.80;7.65;;;;;;;;;;4956576;28;20066;-65
2023/06/18 09:44:21;;;;;;;12.82;7.60;;;;;;;;;;4957704;28;20480;-64
2023/06/18 09:46:49;;;;;;;9.65;6.93;;;;;;;;;;4957712;28;20047;-65
2023/06/18 09:49:19;;;;;;;11.05;7.30;;;;;;;;;;4956620;28;20039;-64
2023/06/18 09:51:46;;;;;;;10.43;7.50;;;;;;;;;;4958467;28;20038;-64
2023/06/18 09:54:12;;;;;;;15.30;8.43;;;;;;;;;;4957689;28;20169;-65
2023/06/18 09:56:39;;;;;;;12.05;7.10;;;;;;;;;;4946715;28;20035;-64
2023/06/18 09:59:05;;;;;;;10.07;6.78;;;;;;;;;;4957282;28;20027;-64
2023/06/18 10:01:51;;;;;;;10.52;7.65;;;;;;;;;;4957260;28;20070;-64
2023/06/18 10:04:17;;;;;;;11.32;7.15;;;;;;;;;;4957423;28;20804;-64
2023/06/18 10:06:58;;;;;;;7.82;6.63;;;;;;;;;;4957174;28;20034;-64
2023/06/18 10:09:29;;;;;;;9.65;6.90;;;;;;;;;;4957521;28;20065;-65
2023/06/18 10:11:55;;;;;;;9.02;6.32;;;;;;;;;;4954723;28;20031;-65
2023/06/18 10:14:23;;;;;;;9.00;5.97;;;;;;;;;;4956332;28;20125;-64
2023/06/18 10:16:51;;;;;;;11.20;6.82;;;;;;;;;;4956145;28;20542;-64
2023/06/18 10:19:38;;;;;;;10.60;6.75;;;;;;;;;;4955555;28;20157;-64
2023/06/18 10:22:04;;;;;;;9.48;6.10;;;;;;;;;;4956558;28;20034;-64
2023/06/18 10:24:40;;;;;;;8.38;6.30;;;;;;;;;;4956153;28;20561;-64
2023/06/18 10:27:06;;;;;;;8.68;6.63;;;;;;;;;;4956967;28;20027;-65
2023/06/18 10:29:33;;;;;;;9.05;5.82;;;;;;;;;;4956253;28;20043;-64
2023/06/18 10:32:01;;;;;;;10.85;6.93;;;;;;;;;;4957959;28;20034;-64
2023/06/18 10:34:27;;;;;;;9.43;6.10;;;;;;;;;;4956285;28;20039;-64
2023/06/18 10:36:55;;;;;;;9.77;6.45;;;;;;;;;;4957388;28;20038;-64
2023/06/18 10:39:22;;;;;;;10.52;7.75;;;;;;;;;;4956345;28;20042;-64
2023/06/18 10:41:49;;;;;;;9.77;6.63;;;;;;;;;;4957267;28;20038;-64
2023/06/18 10:44:15;;;;;;;10.20;6.35;;;;;;;;;;4956585;28;20035;-65
2023/06/18 10:46:41;;;;;;;10.38;6.57;;;;;;;;;;4956261;28;20063;-65
2023/06/18 10:49:19;;;;;;;7.68;5.72;;;;;;;;;;4957312;28;20034;-64
2023/06/18 10:51:57;;;;;;;8.88;6.40;;;;;;;;;;4956396;28;20133;-64
2023/06/18 10:54:25;;;;;;;10.55;6.75;;;;;;;;;;4938873;28;21815;-65
2023/06/18 10:56:52;;;;;;;10.15;6.22;;;;;;;;;;4956194;28;20022;-64
2023/06/18 10:59:37;;;;;;;10.00;6.80;;;;;;;;;;4957251;28;20592;-64
2023/06/18 11:02:03;;;;;;;8.07;6.60;;;;;;;;;;4955776;28;20185;-64
2023/06/18 11:04:31;;;;;;;10.02;6.53;;;;;;;;;;4956537;28;20129;-64
2023/06/18 11:07:16;;;;;;;8.82;6.63;;;;;;;;;;4955946;28;20051;-64
2023/06/18 11:09:50;;;;;;;8.02;6.30;;;;;;;;;;4956297;28;20129;-64
2023/06/18 11:12:26;;;;;;;9.05;6.95;;;;;;;;;;4955724;28;20544;-64
2023/06/18 11:15:24;;;;;;;9.75;6.43;;;;;;;;;;4956555;28;20034;-64
2023/06/18 11:17:52;;;;;;;8.32;6.10;;;;;;;;;;4923380;28;20042;-64
2023/06/18 11:20:19;;;;;;;9.35;7.10;;;;;;;;;;4956494;28;20070;-64
2023/06/18 11:22:46;;;;;;;8.75;6.35;;;;;;;;;;4956031;28;20602;-64
2023/06/18 11:25:13;;;;;;;9.52;6.13;;;;;;;;;;4956190;28;20035;-64
2023/06/18 11:27:41;;;;;;;8.20;6.78;;;;;;;;;;4956244;28;20497;-64
2023/06/18 11:30:08;;;;;;;9.88;6.43;;;;;;;;;;4956726;28;20873;-64
2023/06/18 11:32:34;;;;;;;9.50;6.40;;;;;;;;;;4955210;28;20787;-64
2023/06/18 11:35:01;;;;;;;8.68;6.82;;;;;;;;;;4955613;28;20031;-64
2023/06/18 11:37:30;;;;;;;9.05;6.25;;;;;;;;;;4956007;28;20027;-64
2023/06/18 11:39:56;;;;;;;9.15;6.28;;;;;;;;;;4955773;28;20081;-64
2023/06/18 11:42:25;;;;;;;10.50;6.65;;;;;;;;;;4956204;28;20034;-64
2023/06/18 11:44:58;;;;;;;10.02;7.00;;;;;;;;;;4955849;28;20062;-64
2023/06/18 11:47:24;;;;;;;9.60;6.28;;;;;;;;;;4955029;28;20035;-65
2023/06/18 11:49:51;;;;;;;10.30;6.20;;;;;;;;;;4955549;28;20043;-64
2023/06/18 11:52:19;;;;;;;8.82;6.20;;;;;;;;;;4928444;28;20806;-64
2023/06/18 11:54:45;;;;;;;8.95;6.45;;;;;;;;;;4927570;28;21863;-64
2023/06/18 11:57:12;;;;;;;8.23;6.18;;;;;;;;;;4954841;28;20022;-64
2023/06/18 11:59:41;;;;;;;9.10;6.25;;;;;;;;;;4955350;28;20034;-64
2023/06/18 12:02:11;;;;;;;8.55;6.20;;;;;;;;;;4954669;28;20038;-64
2023/06/18 12:04:38;;;;;;;9.60;6.55;;;;;;;;;;4954325;28;20058;-64
2023/06/18 12:07:04;;;;;;;9.50;6.93;;;;;;;;;;4954574;28;20181;-64
2023/06/18 12:09:34;;;;;;;9.05;6.80;;;;;;;;;;4955472;28;20038;-64
2023/06/18 12:12:07;;;;;;;9.07;6.90;;;;;;;;;;4953112;28;20069;-64
2023/06/18 12:14:40;;;;;;;9.80;6.65;;;;;;;;;;4954090;28;20035;-64
2023/06/18 12:17:15;;;;;;;8.85;6.18;;;;;;;;;;4953937;28;20092;-64
2023/06/18 12:19:49;;;;;;;9.38;6.47;;;;;;;;;;5022517;28;21611;-62
2023/06/18 12:22:16;;;;;;;8.68;6.45;;;;;;;;;;5008161;28;20034;-62
2023/06/18 12:24:43;;;;;;;6.63;5.60;;;;;;;;;;5008920;28;20041;-64
2023/06/18 12:27:09;;;;;;;8.65;5.80;;;;;;;;;;5008542;28;20511;-64
2023/06/18 12:29:35;;;;;;;11.57;6.22;;;;;;;;;;5008604;28;20046;-64
2023/06/18 12:32:05;;;;;;;9.43;6.72;;;;;;;;;;5006118;28;20030;-65
2023/06/18 12:34:35;;;;;;;8.93;6.05;;;;;;;;;;5007928;28;20025;-64
2023/06/18 12:37:01;;;;;;;8.40;6.40;;;;;;;;;;5008058;28;21802;-64
2023/06/18 12:39:29;;;;;;;8.63;6.03;;;;;;;;;;5007782;28;20052;-65
2023/06/18 12:41:55;;;;;;;10.93;6.38;;;;;;;;;;5007951;28;20376;-64
2023/06/18 12:44:23;;;;;;;10.48;6.47;;;;;;;;;;5009898;28;20029;-64
2023/06/18 12:46:49;;;;;;;9.32;5.65;;;;;;;;;;5008472;28;21790;-64
2023/06/18 12:49:18;;;;;;;8.57;6.07;;;;;;;;;;5009387;28;20057;-64
2023/06/18 12:51:49;;;;;;;8.85;6.57;;;;;;;;;;5009330;28;20029;-63
2023/06/18 12:54:17;;;;;;;10.00;6.47;;;;;;;;;;5009981;28;20033;-64
2023/06/18 12:56:50;;;;;;;7.93;6.20;;;;;;;;;;5009258;28;20037;-64
2023/06/18 12:59:19;;;;;;;10.68;7.03;;;;;;;;;;5007339;28;20447;-64
2023/06/18 13:01:50;;;;;;;7.90;5.40;;;;;;;;;;5009597;28;20041;-64
2023/06/18 13:04:17;;;;;;;12.35;7.45;;;;;;;;;;5008583;28;20424;-64
2023/06/18 13:06:45;;;;;;;8.18;5.43;;;;;;;;;;5009282;28;20696;-64
2023/06/18 13:09:11;;;;;;;8.73;6.15;;;;;;;;;;4989655;28;20136;-64
2023/06/18 13:11:38;;;;;;;9.48;6.82;;;;;;;;;;4989580;28;20034;-64
2023/06/18 13:14:04;;;;;;;11.27;7.45;;;;;;;;;;4988411;28;20018;-64
2023/06/18 13:16:30;;;;;;;8.45;6.63;;;;;;;;;;4989441;28;20034;-64
2023/06/18 13:18:57;;;;;;;9.15;6.05;;;;;;;;;;4988536;28;20140;-64
2023/06/18 13:21:23;;;;;;;8.98;6.95;;;;;;;;;;4989307;28;20468;-64
2023/06/18 13:23:49;;;;;;;9.57;6.28;;;;;;;;;;4988703;28;20045;-64
2023/06/18 13:26:16;;;;;;;8.68;6.55;;;;;;;;;;4988549;28;20033;-64
2023/06/18 13:28:42;;;;;;;10.27;6.00;;;;;;;;;;4988084;28;20018;-64
2023/06/18 13:31:09;;;;;;;10.07;6.60;;;;;;;;;;4975790;28;20108;-64
2023/06/18 13:33:35;;;;;;;8.43;6.40;;;;;;;;;;4975641;28;20030;-64
2023/06/18 13:36:01;;;;;;;9.27;6.85;;;;;;;;;;4976153;28;20503;-65
2023/06/18 13:38:27;;;;;;;8.98;5.82;;;;;;;;;;4976176;28;20041;-64
2023/06/18 13:40:53;;;;;;;9.25;5.70;;;;;;;;;;4975223;28;20038;-64
2023/06/18 13:43:19;;;;;;;9.18;6.60;;;;;;;;;;4976129;28;20082;-64
2023/06/18 13:45:45;;;;;;;9.65;6.45;;;;;;;;;;4976062;28;20034;-64
2023/06/18 13:48:12;;;;;;;10.43;6.53;;;;;;;;;;4975973;28;20038;-64
2023/06/18 13:50:38;;;;;;;9.30;6.70;;;;;;;;;;4976397;28;20121;-64
2023/06/18 13:53:04;;;;;;;10.13;6.10;;;;;;;;;;4974904;28;20038;-64
2023/06/18 13:55:30;;;;;;;9.13;6.50;;;;;;;;;;4975618;28;20042;-64
2023/06/18 13:57:56;;;;;;;8.45;6.25;;;;;;;;;;4976364;28;20034;-64
2023/06/18 14:00:23;;;;;;;8.85;6.57;;;;;;;;;;4976212;28;20034;-64
2023/06/18 14:02:49;;;;;;;8.82;5.43;;;;;;;;;;4991755;28;20035;-64
2023/06/18 14:05:15;;;;;;;9.20;6.30;;;;;;;;;;4976041;28;20034;-64
2023/06/18 14:07:41;;;;;;;8.73;6.18;;;;;;;;;;4975628;28;20038;-64
2023/06/18 14:10:07;;;;;;;8.05;6.00;;;;;;;;;;4976656;28;20080;-64
2023/06/18 14:12:34;;;;;;;8.07;6.13;;;;;;;;;;4974928;28;20721;-64
2023/06/18 14:15:00;;;;;;;9.70;7.47;;;;;;;;;;4976172;28;20037;-64
2023/06/18 14:17:26;;;;;;;8.80;6.07;;;;;;;;;;4975581;28;20030;-64
2023/06/18 14:19:53;;;;;;;12.73;6.43;;;;;;;;;;4975603;28;20022;-64
2023/06/18 14:22:19;;;;;;;9.52;7.00;;;;;;;;;;4975280;28;20030;-64
2023/06/18 14:24:45;;;;;;;9.45;6.32;;;;;;;;;;4975625;28;20041;-65
2023/06/18 14:27:12;;;;;;;9.90;6.43;;;;;;;;;;4975902;28;20036;-64